Time;durP1;ratioP1;P1;durP2;ratioP2;P2;SDS_P1;SDS_P2;PMS_P1;PMS_P2;Temp;Humidity;BMP_temperature;BMP_pressure;BME280_temperature;BME280_humidity;BME280_pressure;Samples;Min_cycle;Max_cycle;Signal;HPM_P1;HPM_P2
2021/06/11 00:01:46;;;;;;;3.40;3.10;;;;;;;24.83;40.17;101931.94;5025663;28;20229;-76
2021/06/11 00:04:12;;;;;;;4.00;3.50;;;;;;;24.82;40.12;101932.81;5011044;28;20207;-76
2021/06/11 00:06:37;;;;;;;4.27;3.77;;;;;;;24.80;39.64;101922.38;5043033;28;20894;-75
2021/06/11 00:09:03;;;;;;;3.47;3.13;;;;;;;24.80;39.68;101930.22;5009330;28;20677;-76
2021/06/11 00:11:28;;;;;;;4.47;3.60;;;;;;;24.78;39.96;101925.91;5042433;28;20540;-76
2021/06/11 00:13:54;;;;;;;4.10;3.57;;;;;;;24.77;39.90;101922.44;5042363;28;20190;-76
2021/06/11 00:16:20;;;;;;;3.70;3.40;;;;;;;24.75;39.98;101921.59;5010855;28;20233;-75
2021/06/11 00:18:45;;;;;;;3.00;2.80;;;;;;;24.75;39.86;101925.97;5041675;28;20182;-77
2021/06/11 00:21:10;;;;;;;3.33;3.03;;;;;;;24.73;40.09;101922.53;5042133;28;20198;-78
2021/06/11 00:23:36;;;;;;;4.37;3.30;;;;;;;24.73;39.86;101927.78;5042165;28;20565;-77
2021/06/11 00:26:01;;;;;;;3.50;3.20;;;;;;;24.71;39.95;101919.06;5042427;28;20179;-76
2021/06/11 00:28:26;;;;;;;3.53;3.13;;;;;;;24.69;39.96;101916.50;5014381;28;20269;-77
2021/06/11 00:30:52;;;;;;;3.07;2.87;;;;;;;24.70;40.12;101923.47;5046131;28;20218;-77
2021/06/11 00:33:17;;;;;;;3.83;3.40;;;;;;;24.70;39.61;101920.84;5041876;28;20229;-77
2021/06/11 00:35:42;;;;;;;4.20;3.40;;;;;;;24.68;39.85;101913.91;5041700;28;20626;-77
2021/06/11 00:38:08;;;;;;;4.23;3.50;;;;;;;24.65;40.07;101908.72;5010332;28;20745;-76
2021/06/11 00:40:35;;;;;;;3.77;3.47;;;;;;;24.64;39.98;101907.84;5008943;28;20197;-77
2021/06/11 00:43:01;;;;;;;3.37;3.13;;;;;;;24.63;39.94;101906.13;5008841;28;20175;-76
2021/06/11 00:45:26;;;;;;;3.50;3.20;;;;;;;24.62;39.99;101903.53;5025165;28;20934;-77
2021/06/11 00:47:51;;;;;;;3.87;3.57;;;;;;;24.60;40.11;101900.09;5024890;28;20555;-77
2021/06/11 00:50:21;;;;;;;4.07;3.37;;;;;;;24.60;39.85;101897.47;4992077;28;20851;-77
2021/06/11 00:52:47;;;;;;;4.07;3.37;;;;;;;24.59;40.04;101893.13;5010263;28;20175;-76
2021/06/11 00:55:12;;;;;;;3.90;3.60;;;;;;;24.59;39.84;101891.38;5041851;28;20202;-75
2021/06/11 00:57:37;;;;;;;3.30;3.00;;;;;;;24.57;39.87;101892.25;5041744;28;20193;-77
2021/06/11 01:00:05;;;;;;;3.60;3.30;;;;;;;24.54;39.95;101901.06;5009691;28;20203;-77
2021/06/11 01:02:30;;;;;;;3.60;3.30;;;;;;;24.54;39.88;101900.22;5009434;28;20321;-77
2021/06/11 01:04:56;;;;;;;3.30;3.00;;;;;;;24.55;39.86;101901.94;5008712;28;20716;-78
2021/06/11 01:07:22;;;;;;;3.40;3.10;;;;;;;24.54;39.83;101898.44;5042115;28;20773;-76
2021/06/11 01:09:48;;;;;;;3.57;3.27;;;;;;;24.53;40.03;101901.94;5024933;28;20199;-76
2021/06/11 01:12:14;;;;;;;5.33;3.43;;;;;;;24.53;39.52;101890.59;5044823;28;20562;-75
2021/06/11 01:14:40;;;;;;;3.03;2.83;;;;;;;24.53;39.97;101893.22;5029301;28;20211;-75
2021/06/11 01:17:05;;;;;;;3.53;3.23;;;;;;;24.49;40.00;101897.66;5045757;28;20265;-76
2021/06/11 05:49:02;;;;;;;11.17;10.07;;;;;;;22.96;44.37;101873.34;5042879;27;20316;-75
2021/06/11 05:51:27;;;;;;;12.77;9.87;;;;;;;22.95;44.85;101877.72;5043212;28;20182;-75
2021/06/11 05:53:52;;;;;;;10.87;9.63;;;;;;;23.01;44.58;101879.38;5028292;28;20643;-75
2021/06/11 05:56:19;;;;;;;11.17;9.87;;;;;;;23.03;44.26;101873.25;5043098;28;20221;-74
2021/06/11 05:58:45;;;;;;;10.80;9.70;;;;;;;23.09;44.10;101882.72;5028677;28;20920;-73
2021/06/11 06:01:11;;;;;;;10.60;9.50;;;;;;;23.15;44.07;101883.50;5043590;28;20625;-73
2021/06/11 06:03:36;;;;;;;11.00;8.27;;;;;;;23.21;44.09;101883.44;5028833;28;20205;-71
2021/06/11 06:06:01;;;;;;;12.90;9.97;;;;;;;23.25;44.24;101881.66;5028522;28;20253;-72
2021/06/11 06:08:27;;;;;;;12.73;11.27;;;;;;;23.34;44.37;101878.91;5027893;28;20289;-73
2021/06/11 06:10:52;;;;;;;11.07;9.97;;;;;;;23.30;44.20;101882.44;5042906;28;20211;-76
2021/06/11 06:13:17;;;;;;;12.40;10.33;;;;;;;23.16;44.41;101881.75;5044705;28;20733;-76
2021/06/11 06:15:43;;;;;;;12.90;10.57;;;;;;;23.10;44.60;101872.25;5030934;28;20258;-76
2021/06/11 06:18:08;;;;;;;15.17;10.70;;;;;;;23.11;44.70;101873.97;5029213;28;20170;-75
2021/06/11 06:20:34;;;;;;;12.97;10.70;;;;;;;23.16;44.97;101866.91;5028593;28;20249;-76
2021/06/11 06:22:59;;;;;;;14.93;11.37;;;;;;;23.18;44.66;101865.16;5044099;28;20197;-74
2021/06/11 06:25:24;;;;;;;14.93;10.53;;;;;;;23.28;45.45;101863.28;5022801;28;20711;-74
2021/06/11 06:27:50;;;;;;;16.40;10.40;;;;;;;23.28;44.71;101871.13;5016121;28;20229;-75
2021/06/11 06:30:16;;;;;;;15.23;10.80;;;;;;;23.28;44.66;101869.38;5009483;28;20202;-76
2021/06/11 06:32:41;;;;;;;13.00;11.27;;;;;;;23.33;45.27;101859.72;5023100;28;20186;-75
2021/06/11 06:35:09;;;;;;;11.00;9.90;;;;;;;23.32;45.13;101868.44;5007951;28;20175;-75
2021/06/11 06:37:34;;;;;;;11.93;10.70;;;;;;;23.33;45.01;101859.72;5023625;28;20202;-73
2021/06/11 06:40:00;;;;;;;13.33;10.50;;;;;;;23.38;44.88;101870.13;5007854;28;20191;-76
2021/06/11 06:42:25;;;;;;;14.87;11.60;;;;;;;23.33;45.08;101866.69;5008408;28;20183;-74
2021/06/11 06:44:50;;;;;;;12.13;10.87;;;;;;;23.34;45.10;101856.19;5015936;28;20167;-74
2021/06/11 06:47:16;;;;;;;11.03;9.90;;;;;;;23.36;44.99;101861.41;5032997;28;20213;-75
2021/06/11 06:49:41;;;;;;;15.40;11.93;;;;;;;23.36;44.54;101858.78;5009339;28;20835;-74
2021/06/11 06:52:07;;;;;;;12.60;11.27;;;;;;;23.35;44.62;101859.69;5009168;28;20175;-75
2021/06/11 06:54:33;;;;;;;28.23;12.70;;;;;;;23.43;44.59;101855.22;5007750;28;20186;-75
2021/06/11 06:56:58;;;;;;;17.10;11.83;;;;;;;23.43;44.80;101855.22;5007170;28;20179;-74
2021/06/11 06:59:24;;;;;;;19.47;11.93;;;;;;;23.47;44.52;101854.25;4998447;28;20274;-74
2021/06/11 07:01:49;;;;;;;15.07;10.60;;;;;;;23.51;44.72;101855.91;5009732;28;20184;-75
2021/06/11 07:04:15;;;;;;;12.77;8.77;;;;;;;23.58;43.90;101860.16;4994514;28;20642;-75
2021/06/11 07:06:40;;;;;;;11.20;9.87;;;;;;;23.59;44.32;101857.53;4994708;28;20718;-75
2021/06/11 07:09:07;;;;;;;11.63;9.80;;;;;;;23.66;43.38;101855.66;4996035;28;20207;-78
2021/06/11 07:11:32;;;;;;;11.73;7.77;;;;;;;23.72;43.44;101860.78;5013861;28;20188;-78
2021/06/11 07:13:58;;;;;;;13.60;8.27;;;;;;;23.75;43.33;101861.59;4998091;28;20175;-78
2021/06/11 07:16:23;;;;;;;11.70;8.07;;;;;;;23.75;43.81;101855.50;4996932;28;20175;-79
2021/06/11 07:18:48;;;;;;;10.03;8.97;;;;;;;23.77;43.80;101854.59;5011087;28;20204;-78
2021/06/11 07:21:14;;;;;;;9.37;8.33;;;;;;;23.78;43.75;101858.03;4996962;28;20603;-77
2021/06/11 07:23:41;;;;;;;13.47;9.03;;;;;;;23.80;43.38;101858.91;4983048;28;20187;-76
2021/06/11 07:26:07;;;;;;;9.37;7.67;;;;;;;23.90;43.43;101857.88;4992053;28;20180;-78
2021/06/11 07:28:37;;;;;;;10.60;8.10;;;;;;;23.94;43.71;101851.69;4976847;28;20227;-73
2021/06/11 07:31:04;;;;;;;10.33;7.50;;;;;;;23.95;43.46;101862.13;4984526;28;20208;-71
2021/06/11 07:33:30;;;;;;;8.87;6.70;;;;;;;24.01;43.38;101858.50;4989032;28;20184;-75
2021/06/11 07:35:57;;;;;;;38.77;8.77;;;;;;;24.43;43.76;101853.28;4988809;28;20557;-73
2021/06/11 07:38:23;;;;;;;10.80;7.13;;;;;;;24.30;42.71;101857.03;4973165;28;20659;-75
2021/06/11 07:40:51;;;;;;;8.27;5.83;;;;;;;24.19;42.68;101860.75;4974069;28;20247;-77
2021/06/11 07:43:16;;;;;;;7.70;6.90;;;;;;;24.23;42.67;101865.94;4987910;28;20176;-75
2021/06/11 07:45:42;;;;;;;9.30;6.63;;;;;;;24.18;42.73;101859.88;4993563;28;20178;-76
2021/06/11 07:48:07;;;;;;;7.23;5.97;;;;;;;24.18;42.83;101862.50;5008658;28;20207;-75
2021/06/11 07:50:32;;;;;;;8.23;5.57;;;;;;;24.22;42.63;101858.09;4993410;28;20555;-76
2021/06/11 07:52:58;;;;;;;7.43;6.00;;;;;;;24.28;43.23;101857.97;4991183;28;20183;-75
2021/06/11 07:55:23;;;;;;;9.17;6.63;;;;;;;24.34;42.76;101868.31;4993057;28;20541;-74
2021/06/11 07:57:48;;;;;;;8.53;6.60;;;;;;;24.25;43.39;101864.13;5008706;28;20164;-74
2021/06/11 08:00:14;;;;;;;13.07;6.43;;;;;;;24.22;42.82;101864.19;4993263;28;20198;-74
2021/06/11 08:02:41;;;;;;;9.03;6.33;;;;;;;24.25;42.61;101874.59;4996110;28;20168;-76
2021/06/11 08:05:08;;;;;;;7.67;5.90;;;;;;;24.24;43.01;101865.03;4994742;28;20167;-75
2021/06/11 08:07:33;;;;;;;8.33;5.93;;;;;;;24.28;42.88;101868.44;5008952;28;20188;-76
2021/06/11 08:09:59;;;;;;;8.13;6.00;;;;;;;24.29;42.71;101867.53;4994103;28;20635;-77
2021/06/11 08:12:25;;;;;;;8.30;5.40;;;;;;;24.28;42.78;101871.06;4995646;28;20180;-76
2021/06/11 08:14:50;;;;;;;5.93;4.90;;;;;;;24.31;42.89;101869.22;4996942;28;20578;-81
2021/06/11 08:17:15;;;;;;;7.17;5.10;;;;;;;24.30;42.81;101866.63;4997394;28;20222;-75
2021/06/11 08:19:41;;;;;;;6.90;4.70;;;;;;;24.35;42.64;101865.66;5010278;28;20230;-77
2021/06/11 08:22:07;;;;;;;5.40;4.70;;;;;;;24.32;42.74;101860.50;4994701;28;20732;-76
2021/06/11 08:24:32;;;;;;;10.60;4.60;;;;;;;24.35;42.67;101859.56;5005101;28;20187;-77
2021/06/11 08:26:58;;;;;;;7.07;4.60;;;;;;;24.36;42.64;101863.91;5005420;28;20179;-78
2021/06/11 08:29:23;;;;;;;5.03;4.53;;;;;;;24.39;42.59;101858.59;4979506;28;20210;-77
2021/06/11 08:31:50;;;;;;;6.53;4.30;;;;;;;24.38;42.75;101855.13;4979556;28;20188;-78
2021/06/11 08:34:15;;;;;;;5.00;4.50;;;;;;;24.40;42.72;101848.09;4995354;28;20243;-78
2021/06/11 08:36:40;;;;;;;4.67;4.07;;;;;;;24.40;42.75;101853.31;4962983;28;20251;-78
2021/06/11 08:39:06;;;;;;;9.47;4.90;;;;;;;24.40;42.63;101853.31;4979970;28;20204;-77
2021/06/11 08:41:32;;;;;;;4.63;3.90;;;;;;;24.40;42.54;101852.47;4974912;28;20208;-76
2021/06/11 08:43:58;;;;;;;6.10;4.30;;;;;;;24.40;42.59;101855.09;4974388;28;20185;-75
2021/06/11 08:46:25;;;;;;;5.97;4.20;;;;;;;24.41;42.56;101847.19;4973632;28;20259;-75
2021/06/11 08:48:50;;;;;;;7.43;4.13;;;;;;;24.42;42.57;101851.56;4973435;28;20205;-75
2021/06/11 08:51:15;;;;;;;7.50;4.47;;;;;;;24.44;42.63;101849.75;4975991;28;20185;-75
2021/06/11 08:53:41;;;;;;;5.03;4.00;;;;;;;24.50;42.68;101851.38;4996014;28;20228;-75
2021/06/11 08:56:06;;;;;;;9.97;4.90;;;;;;;24.47;42.62;101844.47;4994172;28;20271;-75
2021/06/11 08:58:31;;;;;;;6.67;4.30;;;;;;;24.48;42.61;101848.78;4993046;28;20191;-76
2021/06/11 09:00:57;;;;;;;5.67;4.07;;;;;;;24.47;42.38;101852.31;5007953;28;20622;-75
2021/06/11 09:03:34;;;;;;;6.47;4.20;;;;;;;24.48;42.48;101853.16;5007841;28;20595;-76
2021/06/11 09:05:59;;;;;;;6.47;3.57;;;;;;;24.54;42.71;101860.91;4992875;28;20614;-76
2021/06/11 09:08:25;;;;;;;7.67;3.37;;;;;;;24.50;42.82;101848.75;5008436;28;20239;-76
2021/06/11 09:10:52;;;;;;;5.13;3.70;;;;;;;24.54;42.70;101860.91;4994310;28;20187;-77
2021/06/11 09:13:29;;;;;;;6.60;4.37;;;;;;;24.54;42.75;101861.75;5009180;28;20183;-75
2021/06/11 09:16:23;;;;;;;6.43;3.77;;;;;;;24.55;42.93;101860.00;4993124;28;20175;-75
2021/06/11 09:19:04;;;;;;;8.17;4.03;;;;;;;24.59;42.97;101854.69;4992178;28;20172;-77
2021/06/11 09:21:45;;;;;;;6.37;3.60;;;;;;;24.61;42.81;101850.28;5008076;28;20645;-75
2021/06/11 09:24:24;;;;;;;4.83;3.37;;;;;;;24.62;42.78;101852.00;5008090;28;20645;-76
2021/06/11 09:27:08;;;;;;;5.73;3.60;;;;;;;24.63;42.74;101851.09;5009116;28;20176;-77
2021/06/11 09:29:45;;;;;;;4.70;3.43;;;;;;;24.65;42.83;101845.84;4975429;28;20200;-77
2021/06/11 09:32:23;;;;;;;4.50;3.27;;;;;;;24.66;42.91;101845.81;4973292;28;20267;-75
2021/06/11 09:34:55;;;;;;;6.17;3.77;;;;;;;24.67;43.09;101849.31;4972399;28;20204;-76
2021/06/11 09:37:27;;;;;;;4.97;3.63;;;;;;;24.67;42.92;101850.16;4955312;28;20705;-74
2021/06/11 09:39:57;;;;;;;4.00;3.17;;;;;;;24.71;43.00;101837.81;4973010;28;20204;-73
2021/06/11 09:42:25;;;;;;;6.10;3.80;;;;;;;24.75;42.76;101836.88;4978759;28;20175;-75
2021/06/11 09:45:05;;;;;;;8.03;3.93;;;;;;;24.72;42.51;101839.56;4992151;28;20179;-74
2021/06/11 09:47:39;;;;;;;6.60;3.43;;;;;;;24.71;42.57;101841.31;4991184;28;20211;-74
2021/06/11 09:50:05;;;;;;;5.23;3.50;;;;;;;24.73;42.35;101846.53;5006986;28;20202;-77
2021/06/11 09:52:35;;;;;;;6.43;3.63;;;;;;;24.68;42.65;101835.31;5008152;28;20180;-74
2021/06/11 09:55:03;;;;;;;6.87;3.63;;;;;;;24.68;42.48;101837.91;4991496;28;20176;-73
2021/06/11 09:57:33;;;;;;;8.40;4.20;;;;;;;24.69;42.59;101837.88;4972033;28;20207;-73
2021/06/11 09:59:58;;;;;;;7.57;4.37;;;;;;;24.67;42.60;101834.44;4981858;28;20200;-74
2021/06/11 10:02:24;;;;;;;10.97;3.90;;;;;;;24.76;42.72;101835.97;5006882;28;20178;-75
2021/06/11 10:04:50;;;;;;;6.13;4.50;;;;;;;24.82;42.54;101841.09;4992212;28;20186;-77
2021/06/11 10:07:15;;;;;;;9.57;4.83;;;;;;;24.82;43.13;101841.94;4991352;28;20207;-73
2021/06/11 10:09:41;;;;;;;8.83;4.20;;;;;;;24.89;42.85;101842.66;4991355;28;20290;-74
2021/06/11 10:12:07;;;;;;;7.53;4.40;;;;;;;24.90;42.59;101836.50;4991423;28;20176;-74
2021/06/11 10:14:34;;;;;;;6.17;4.20;;;;;;;24.85;42.83;101831.38;4972462;28;20263;-75
2021/06/11 10:16:59;;;;;;;6.80;4.17;;;;;;;24.76;42.98;101826.34;4972083;28;20221;-73
2021/06/11 10:19:26;;;;;;;7.53;4.10;;;;;;;24.76;42.77;101823.72;4972193;28;20200;-74
2021/06/11 10:21:52;;;;;;;7.67;4.07;;;;;;;24.82;42.92;101820.13;4988672;28;20236;-73
2021/06/11 10:24:20;;;;;;;5.17;4.17;;;;;;;24.81;42.82;101819.25;5005974;28;20182;-72
2021/06/11 10:26:46;;;;;;;5.40;4.00;;;;;;;24.76;42.97;101815.88;4982740;28;20172;-73
2021/06/11 10:29:14;;;;;;;4.27;3.57;;;;;;;24.89;42.83;101825.19;4983864;28;20211;-71
2021/06/11 10:31:40;;;;;;;5.07;4.03;;;;;;;24.91;42.54;101822.53;4996966;28;20188;-72
2021/06/11 10:34:05;;;;;;;4.87;3.90;;;;;;;24.91;42.52;101828.59;4983096;28;20177;-72
2021/06/11 10:36:35;;;;;;;8.23;4.90;;;;;;;24.94;42.76;101820.69;4979136;28;20338;-70
2021/06/11 10:39:10;;;;;;;7.07;3.63;;;;;;;24.95;42.53;101821.56;4996949;28;20203;-70
2021/06/11 10:41:55;;;;;;;4.77;3.77;;;;;;;24.97;42.86;101820.63;4983402;28;20184;-72
2021/06/11 10:44:30;;;;;;;6.53;4.40;;;;;;;24.99;42.66;101829.31;5018781;28;20211;-72
2021/06/11 10:47:17;;;;;;;10.23;4.73;;;;;;;25.00;42.66;101820.53;5002344;28;20187;-72
2021/06/11 10:49:55;;;;;;;5.50;4.37;;;;;;;24.99;42.57;101826.69;5017620;28;20223;-71
2021/06/11 10:52:48;;;;;;;6.07;4.17;;;;;;;25.00;42.61;101820.53;5018532;28;20186;-71
2021/06/11 10:55:19;;;;;;;5.67;4.27;;;;;;;25.02;42.58;101823.13;5013016;28;20148;-76
2021/06/11 10:58:06;;;;;;;5.27;4.03;;;;;;;25.03;42.49;101811.72;5017358;28;20156;-76
2021/06/11 11:00:33;;;;;;;6.53;4.07;;;;;;;25.05;42.59;101808.16;5018292;28;20192;-77
2021/06/11 11:03:01;;;;;;;7.10;4.33;;;;;;;25.01;42.67;101811.75;5020212;28;20174;-76
2021/06/11 11:05:32;;;;;;;7.40;4.10;;;;;;;25.03;42.48;101819.59;5019551;28;20184;-76
2021/06/11 11:07:59;;;;;;;13.30;4.60;;;;;;;25.02;42.62;101808.25;5011517;28;20203;-76
2021/06/11 11:10:39;;;;;;;9.27;4.43;;;;;;;25.03;42.70;101815.22;5011379;28;20337;-76
2021/06/11 11:13:08;;;;;;;8.43;4.00;;;;;;;25.07;42.31;101813.38;5010892;28;20172;-76
2021/06/11 11:15:38;;;;;;;8.40;4.30;;;;;;;25.12;42.95;101804.50;5002271;28;20262;-75
2021/06/11 11:18:05;;;;;;;4.10;3.67;;;;;;;25.16;42.54;101793.03;5000951;28;20644;-73
2021/06/11 11:20:34;;;;;;;6.97;3.90;;;;;;;25.19;42.46;101792.09;5006639;28;20890;-73
2021/06/11 11:23:01;;;;;;;5.90;3.63;;;;;;;25.23;42.55;101788.50;5004373;28;20182;-74
2021/06/11 11:25:28;;;;;;;6.47;4.07;;;;;;;25.27;42.69;101795.44;4999293;28;20203;-71
2021/06/11 11:27:55;;;;;;;5.53;3.70;;;;;;;25.33;42.43;101800.53;5001652;28;20223;-72
2021/06/11 11:30:24;;;;;;;6.63;4.00;;;;;;;25.35;42.64;101799.56;4999987;28;20195;-72
2021/06/11 11:32:50;;;;;;;5.83;3.70;;;;;;;25.37;42.49;101796.91;4999993;28;20179;-74
2021/06/11 11:35:17;;;;;;;6.03;3.70;;;;;;;25.41;42.46;101796.78;4997784;28;20186;-73
2021/06/11 11:37:43;;;;;;;3.90;3.47;;;;;;;25.43;42.13;101791.50;4980801;28;20230;-72
2021/06/11 11:40:09;;;;;;;7.13;4.37;;;;;;;25.36;42.75;101789.91;4997998;28;20579;-71
2021/06/11 11:42:34;;;;;;;4.87;4.13;;;;;;;25.39;42.39;101790.72;4998311;28;20176;-71
2021/06/11 11:45:00;;;;;;;7.37;4.23;;;;;;;25.39;42.47;101785.47;4996372;28;20271;-73
2021/06/11 11:47:25;;;;;;;6.10;3.97;;;;;;;25.44;42.21;101782.72;4997521;28;20214;-72
2021/06/11 11:49:50;;;;;;;4.43;4.00;;;;;;;25.48;42.46;101790.50;4997714;28;20208;-72
2021/06/11 11:52:16;;;;;;;4.57;4.03;;;;;;;25.52;42.05;101780.75;5002349;28;20220;-73
2021/06/11 11:54:41;;;;;;;4.33;3.60;;;;;;;25.55;42.06;101778.91;4997013;28;20191;-78
2021/06/11 11:57:06;;;;;;;4.40;4.00;;;;;;;25.58;42.14;101777.97;4998205;28;20186;-75
2021/06/11 11:59:32;;;;;;;5.20;3.87;;;;;;;25.58;41.98;101776.22;5013775;28;20204;-75
2021/06/11 12:01:57;;;;;;;5.40;3.83;;;;;;;25.61;41.89;101772.66;4998482;28;20235;-74
2021/06/11 12:04:23;;;;;;;6.37;3.47;;;;;;;25.56;41.86;101772.75;4997854;28;20675;-75
2021/06/11 12:06:49;;;;;;;4.65;3.50;;;;;;;25.59;41.88;101769.19;4998275;28;20179;-75
2021/06/11 12:09:14;;;;;;;4.67;3.80;;;;;;;25.60;41.87;101765.69;4998212;28;20496;-74
2021/06/11 12:11:41;;;;;;;7.47;3.43;;;;;;;25.62;41.95;101761.22;4998331;28;20215;-75
2021/06/11 12:14:07;;;;;;;4.00;3.23;;;;;;;25.63;41.96;101755.94;5014007;28;20739;-74
2021/06/11 12:16:32;;;;;;;6.47;3.60;;;;;;;25.63;41.88;101753.31;5013857;28;20186;-74
2021/06/11 12:18:58;;;;;;;7.67;3.20;;;;;;;25.67;41.68;101759.34;4998865;28;20688;-73
2021/06/11 12:21:23;;;;;;;6.97;4.30;;;;;;;25.69;41.61;101747.91;4999057;28;20236;-74
2021/06/11 12:23:49;;;;;;;7.23;3.57;;;;;;;25.73;41.82;101746.91;4997942;28;20175;-74
2021/06/11 12:26:14;;;;;;;6.43;3.73;;;;;;;25.77;41.23;101750.28;4997967;28;20668;-74
2021/06/11 12:28:40;;;;;;;5.77;3.80;;;;;;;25.78;41.55;101758.13;5012954;28;20266;-74
2021/06/11 12:31:06;;;;;;;10.73;3.90;;;;;;;25.84;41.41;101755.31;4996934;28;20210;-76
2021/06/11 12:33:32;;;;;;;6.27;3.87;;;;;;;25.86;41.68;101750.91;4992174;28;20190;-72
2021/06/11 12:35:57;;;;;;;6.40;3.60;;;;;;;25.88;41.41;101745.63;4991577;28;20176;-72
2021/06/11 12:38:22;;;;;;;5.50;4.03;;;;;;;25.90;41.94;101752.53;4990138;28;20533;-73
2021/06/11 12:40:49;;;;;;;9.43;3.80;;;;;;;25.87;42.11;101749.16;4989539;28;20208;-73
2021/06/11 12:43:20;;;;;;;6.37;3.90;;;;;;;25.87;42.45;101741.28;4990202;28;20287;-72
2021/06/11 12:45:46;;;;;;;4.97;3.53;;;;;;;25.90;42.72;101738.53;4998878;28;20318;-72
2021/06/11 12:48:12;;;;;;;8.27;4.17;;;;;;;25.89;42.54;101728.97;5009068;28;20298;-73
2021/06/11 12:50:39;;;;;;;7.17;3.40;;;;;;;25.93;42.12;101728.00;5010634;28;20205;-73
2021/06/11 12:53:04;;;;;;;5.93;3.53;;;;;;;25.96;42.15;101734.00;5010326;28;20179;-73
2021/06/11 12:55:30;;;;;;;5.20;3.80;;;;;;;26.00;41.79;101729.53;5010595;28;20183;-73
2021/06/11 12:57:55;;;;;;;5.83;3.60;;;;;;;25.99;41.45;101717.31;5009866;28;20547;-73
2021/06/11 13:00:21;;;;;;;4.30;3.67;;;;;;;26.03;41.47;101726.81;5010238;28;20278;-73
2021/06/11 13:02:46;;;;;;;5.30;3.50;;;;;;;26.04;41.76;101721.53;5008791;28;20206;-73
2021/06/11 13:05:13;;;;;;;4.80;3.30;;;;;;;26.03;41.91;101724.19;5010089;28;20186;-73
2021/06/11 13:07:38;;;;;;;4.87;3.23;;;;;;;26.05;41.63;101717.09;5010181;28;20290;-73
2021/06/11 13:10:04;;;;;;;4.73;3.50;;;;;;;26.05;41.50;101717.97;5010206;28;20270;-73
2021/06/11 13:12:29;;;;;;;4.70;3.50;;;;;;;26.02;41.67;101712.81;5010583;28;20831;-73
2021/06/11 13:14:55;;;;;;;9.30;4.17;;;;;;;26.07;41.26;101718.78;5012761;28;20214;-73
2021/06/11 13:17:20;;;;;;;9.23;4.70;;;;;;;26.13;40.78;101713.38;5031057;28;20183;-73
2021/06/11 13:19:45;;;;;;;7.77;4.07;;;;;;;26.20;41.00;101721.94;5025638;28;20288;-74
2021/06/11 13:22:10;;;;;;;5.47;3.97;;;;;;;26.20;41.07;101722.75;5010620;28;20254;-74
2021/06/11 13:24:36;;;;;;;4.95;3.60;;;;;;;26.21;40.99;101727.13;5010891;28;20198;-73
2021/06/11 13:27:01;;;;;;;5.10;3.70;;;;;;;26.23;41.22;101722.69;5010610;28;20186;-73
2021/06/11 13:29:26;;;;;;;6.40;3.97;;;;;;;26.25;41.32;101718.22;5009844;28;20207;-74
2021/06/11 13:31:52;;;;;;;12.67;3.67;;;;;;;26.26;41.21;101719.09;5010117;28;20183;-74
2021/06/11 13:34:17;;;;;;;8.43;3.67;;;;;;;26.26;41.09;101717.34;5011224;28;20559;-73
2021/06/11 13:36:43;;;;;;;10.30;3.92;;;;;;;26.33;41.65;101721.47;5010909;28;20252;-74
2021/06/11 13:39:08;;;;;;;6.27;3.63;;;;;;;26.39;40.62;101712.56;5008954;28;21005;-74
2021/06/11 13:41:34;;;;;;;4.93;3.33;;;;;;;26.37;40.93;101711.72;5008950;28;20178;-74
2021/06/11 13:44:02;;;;;;;4.90;3.50;;;;;;;26.26;41.20;101712.09;5008728;28;20190;-74
2021/06/11 13:46:28;;;;;;;5.20;3.72;;;;;;;26.21;41.22;101703.50;5010273;28;20560;-73
2021/06/11 13:48:53;;;;;;;4.72;2.90;;;;;;;26.17;41.13;101707.13;5008817;28;20656;-74
2021/06/11 13:51:19;;;;;;;4.93;3.20;;;;;;;26.22;41.42;101710.47;5010466;28;20274;-73
2021/06/11 13:53:45;;;;;;;5.93;3.57;;;;;;;26.26;40.99;101704.22;5010472;28;20183;-73
2021/06/11 13:56:10;;;;;;;3.70;3.10;;;;;;;26.21;40.91;101705.25;5010394;28;20188;-73
2021/06/11 13:58:36;;;;;;;3.90;3.50;;;;;;;26.24;40.99;101698.13;5010097;28;20230;-73
2021/06/11 14:01:03;;;;;;;4.30;3.20;;;;;;;26.23;40.54;101701.66;5010055;28;20202;-74
2021/06/11 14:03:29;;;;;;;5.27;3.40;;;;;;;26.20;40.46;101698.28;5010230;28;20617;-74
2021/06/11 14:05:54;;;;;;;5.13;3.23;;;;;;;26.22;40.56;101699.06;5010016;28;20178;-74
2021/06/11 14:08:20;;;;;;;4.60;3.40;;;;;;;26.22;40.36;101697.31;5008780;28;20294;-74
2021/06/11 14:10:45;;;;;;;5.30;2.97;;;;;;;26.31;40.39;101693.53;5012120;28;20222;-73
2021/06/11 14:13:11;;;;;;;4.40;3.40;;;;;;;26.33;40.48;101692.56;5014205;28;20831;-73
2021/06/11 14:15:37;;;;;;;3.95;3.00;;;;;;;26.34;40.91;101685.56;5012724;28;20566;-74
2021/06/11 14:18:03;;;;;;;4.53;3.10;;;;;;;26.36;40.49;101691.63;5013954;28;20175;-73
2021/06/11 14:20:29;;;;;;;5.90;3.00;;;;;;;26.28;40.10;101691.88;5013565;28;20222;-73
2021/06/11 14:22:54;;;;;;;4.30;2.80;;;;;;;26.26;40.65;101696.31;5013797;28;20189;-73
2021/06/11 14:25:19;;;;;;;4.60;3.28;;;;;;;26.24;40.46;101689.41;5013825;28;20179;-73
2021/06/11 14:27:46;;;;;;;4.95;3.10;;;;;;;26.23;40.33;101692.91;5013652;28;20205;-73
2021/06/11 14:30:13;;;;;;;3.17;2.90;;;;;;;26.18;40.70;101686.94;5013570;28;20333;-74
2021/06/11 14:32:38;;;;;;;5.40;2.90;;;;;;;26.14;40.67;101703.69;5045435;28;20179;-73
2021/06/11 14:35:04;;;;;;;7.17;2.87;;;;;;;26.11;40.78;101690.69;5013470;28;20194;-73
2021/06/11 14:37:30;;;;;;;4.43;3.10;;;;;;;26.09;40.86;101685.47;5012299;28;20183;-73
2021/06/11 14:39:55;;;;;;;8.70;2.80;;;;;;;26.10;40.48;101688.97;5013387;28;20277;-72
2021/06/11 14:42:20;;;;;;;4.87;2.70;;;;;;;26.10;41.09;101687.19;5013137;28;20186;-73
2021/06/11 14:44:45;;;;;;;3.60;2.63;;;;;;;26.13;40.73;101686.22;5013673;28;20178;-74
2021/06/11 14:47:11;;;;;;;4.77;2.77;;;;;;;26.14;40.96;101690.56;5028684;28;20195;-73
2021/06/11 14:49:36;;;;;;;6.43;2.63;;;;;;;26.17;40.59;101691.34;5013032;28;20679;-73
2021/06/11 14:52:04;;;;;;;3.00;2.70;;;;;;;26.22;40.81;101691.19;5013282;28;20175;-72
2021/06/11 14:54:35;;;;;;;4.93;2.90;;;;;;;26.28;40.38;101691.00;5012073;28;20206;-73
2021/06/11 14:57:03;;;;;;;4.38;2.53;;;;;;;26.26;40.81;101687.56;5012465;28;20171;-73
2021/06/11 14:59:28;;;;;;;4.67;2.63;;;;;;;26.22;41.19;101686.81;5013940;28;20206;-72
2021/06/11 15:01:53;;;;;;;7.03;2.57;;;;;;;26.18;40.66;101693.06;5010250;28;20175;-72
2021/06/11 15:04:19;;;;;;;5.33;2.80;;;;;;;26.17;41.03;101690.47;5011709;28;20610;-74
2021/06/11 15:06:45;;;;;;;4.30;2.70;;;;;;;26.15;41.00;101687.91;5013558;28;20179;-73
2021/06/11 15:09:12;;;;;;;6.83;2.77;;;;;;;26.13;41.03;101688.84;5014004;28;20214;-73
2021/06/11 15:11:37;;;;;;;5.93;3.17;;;;;;;26.10;41.23;101688.97;5012064;28;20272;-73
2021/06/11 15:14:03;;;;;;;6.88;3.10;;;;;;;26.09;41.24;101690.72;5013806;28;20244;-73
2021/06/11 15:16:28;;;;;;;7.23;2.40;;;;;;;26.06;41.32;101688.19;5013139;28;20190;-74
2021/06/11 15:18:53;;;;;;;6.67;2.80;;;;;;;26.05;41.46;101686.47;5013129;28;20175;-73
2021/06/11 15:21:19;;;;;;;4.37;2.77;;;;;;;26.04;41.68;101692.63;5012414;28;20179;-73
2021/06/11 15:23:44;;;;;;;2.70;2.30;;;;;;;26.02;41.49;101689.19;5012920;28;20702;-73
2021/06/11 15:26:09;;;;;;;3.40;2.17;;;;;;;26.02;41.49;101690.97;5013239;28;20678;-74
2021/06/11 15:28:35;;;;;;;3.67;2.53;;;;;;;26.02;41.37;101688.34;5006916;28;20208;-73
2021/06/11 15:31:01;;;;;;;3.37;2.43;;;;;;;26.01;41.54;101687.47;4994117;28;20200;-73
2021/06/11 15:33:26;;;;;;;4.53;2.77;;;;;;;25.99;41.66;101683.16;5007729;28;20179;-75
2021/06/11 15:35:52;;;;;;;3.43;2.50;;;;;;;25.97;41.65;101695.50;5015543;28;20199;-74
2021/06/11 15:38:18;;;;;;;3.33;2.53;;;;;;;25.98;42.00;101686.72;4993990;28;20176;-74
2021/06/11 15:40:45;;;;;;;8.20;2.40;;;;;;;25.97;41.99;101680.59;4992769;28;20206;-74
2021/06/11 15:43:10;;;;;;;4.10;2.30;;;;;;;26.04;41.54;101673.38;5007830;28;20246;-74
2021/06/11 15:45:37;;;;;;;4.97;2.40;;;;;;;26.11;41.57;101677.56;4992978;28;20192;-74
2021/06/11 15:48:04;;;;;;;3.00;2.40;;;;;;;26.15;41.71;101676.56;4992507;28;20262;-74
2021/06/11 15:50:29;;;;;;;3.63;2.53;;;;;;;26.22;42.08;101670.19;4992587;28;20210;-73
2021/06/11 15:52:56;;;;;;;4.23;2.20;;;;;;;26.20;41.99;101664.13;4992529;28;20176;-73